Time;durP1;ratioP1;P1;durP2;ratioP2;P2;SDS_P1;SDS_P2;PMS_P1;PMS_P2;Temp;Humidity;BMP_temperature;BMP_pressure;BME280_temperature;BME280_humidity;BME280_pressure;Samples;Min_cycle;Max_cycle;Signal;HPM_P1;HPM_P2
2022/10/11 00:01:19;;;;;;;;;;;;;;;;;;5101855;28;19959;-79
2022/10/11 00:03:45;;;;;;;;;;;;;;;;;;5096897;28;19944;-79
2022/10/11 00:06:11;;;;;;;;;;;;;;;;;;5093554;28;20450;-80
2022/10/11 00:08:37;;;;;;;;;;;;;;;;;;5102370;28;19951;-80
2022/10/11 00:11:03;;;;;;;;;;;;;;;;;;5091182;28;19962;-78
2022/10/11 00:13:29;;;;;;;;;;;;;;;;;;5102334;28;19978;-78
2022/10/11 00:15:56;;;;;;;;;;;;;;;;;;5104462;28;19943;-79
2022/10/11 00:18:22;;;;;;;;;;;;;;;;;;5097669;28;19951;-78
2022/10/11 00:20:48;;;;;;;;;;;;;;;;;;5082425;28;19962;-78
2022/10/11 00:23:14;;;;;;;;;;;;;;;;;;5108232;28;20380;-78
2022/10/11 00:25:40;;;;;;;;;;;;;;;;;;5104516;28;19993;-78
2022/10/11 00:28:07;;;;;;;;;;;;;;;;;;5108738;28;20330;-79
2022/10/11 00:30:33;;;;;;;;;;;;;;;;;;5101403;28;19974;-78
2022/10/11 00:32:59;;;;;;;;;;;;;;;;;;5108903;28;20001;-78
2022/10/11 00:35:25;;;;;;;;;;;;;;;;;;5107059;28;20158;-78
2022/10/11 00:37:51;;;;;;;;;;;;;;;;;;5102106;28;19959;-78
2022/10/11 00:40:18;;;;;;;;;;;;;;;;;;5089735;28;19966;-78
2022/10/11 00:42:44;;;;;;;;;;;;;;;;;;5105342;28;19954;-78
2022/10/11 00:45:10;;;;;;;;;;;;;;;;;;5106943;28;19951;-79
2022/10/11 00:47:36;;;;;;;;;;;;;;;;;;5101476;28;20579;-79
2022/10/11 00:50:02;;;;;;;;;;;;;;;;;;5096600;28;19966;-79
2022/10/11 00:52:30;;;;;;;;;;;;;;;;;;5099999;28;19947;-79
2022/10/11 00:54:56;;;;;;;;;;;;;;;;;;5095485;28;19965;-79
2022/10/11 00:57:22;;;;;;;;;;;;;;;;;;5097951;28;19970;-79
2022/10/11 00:59:49;;;;;;;;;;;;;;;;;;5102577;28;20458;-79
2022/10/11 01:02:15;;;;;;;;;;;;;;;;;;5105478;28;19980;-79
2022/10/11 01:04:41;;;;;;;;;;;;;;;;;;5084199;28;19967;-79
2022/10/11 01:07:07;;;;;;;;;;;;;;;;;;5103184;28;20671;-79
2022/10/11 01:09:33;;;;;;;;;;;;;;;;;;5097101;28;19967;-79
2022/10/11 01:12:00;;;;;;;;;;;;;;;;;;5088575;28;20452;-80
2022/10/11 01:14:26;;;;;;;;;;;;;;;;;;5106103;28;19948;-79
2022/10/11 01:16:52;;;;;;;;;;;;;;;;;;5104402;28;19951;-79
2022/10/11 01:19:18;;;;;;;;;;;;;;;;;;5102282;28;19944;-79
2022/10/11 01:21:44;;;;;;;;;;;;;;;;;;5100557;28;19975;-80
2022/10/11 01:24:11;;;;;;;;;;;;;;;;;;5090673;28;19924;-79
2022/10/11 01:26:37;;;;;;;;;;;;;;;;;;5097949;28;19943;-80
2022/10/11 01:29:03;;;;;;;;;;;;;;;;;;5101537;28;20427;-80
2022/10/11 01:31:29;;;;;;;;;;;;;;;;;;5101008;28;19916;-79
2022/10/11 01:33:56;;;;;;;;;;;;;;;;;;5088790;28;20391;-80
2022/10/11 01:36:26;;;;;;;;;;;;;;;;;;5084146;28;20402;-80
2022/10/11 01:38:52;;;;;;;;;;;;;;;;;;5099799;28;19964;-79
2022/10/11 01:41:18;;;;;;;;;;;;;;;;;;5106029;28;20403;-77
2022/10/11 01:43:45;;;;;;;;;;;;;;;;;;5103250;28;19967;-78
2022/10/11 01:46:11;;;;;;;;;;;;;;;;;;5088176;28;19974;-78
2022/10/11 01:48:37;;;;;;;;;;;;;;;;;;5090997;28;19962;-78
2022/10/11 01:51:03;;;;;;;;;;;;;;;;;;5099703;28;19962;-78
2022/10/11 01:53:29;;;;;;;;;;;;;;;;;;5095750;28;19962;-78
2022/10/11 01:55:55;;;;;;;;;;;;;;;;;;5077118;28;19959;-78
2022/10/11 01:58:22;;;;;;;;;;;;;;;;;;5101295;28;19959;-79
2022/10/11 02:00:48;;;;;;;;;;;;;;;;;;5105193;28;19966;-78
2022/10/11 02:03:14;;;;;;;;;;;;;;;;;;5102345;28;19954;-79
2022/10/11 02:05:40;;;;;;;;;;;;;;;;;;5106699;28;20045;-79
2022/10/11 02:08:07;;;;;;;;;;;;;;;;;;5087575;28;19952;-79
2022/10/11 02:10:33;;;;;;;;;;;;;;;;;;5104393;28;19974;-78
2022/10/11 02:12:59;;;;;;;;;;;;;;;;;;5099532;28;19951;-78
2022/10/11 02:15:25;;;;;;;;;;;;;;;;;;5103824;28;19944;-78
2022/10/11 02:17:51;;;;;;;;;;;;;;;;;;5080822;28;19975;-78
2022/10/11 02:20:17;;;;;;;;;;;;;;;;;;5089604;28;20413;-78
2022/10/11 02:22:44;;;;;;;;;;;;;;;;;;5097407;28;19947;-78
2022/10/11 02:25:10;;;;;;;;;;;;;;;;;;5093106;28;19943;-78
2022/10/11 02:27:36;;;;;;;;;;;;;;;;;;5102903;28;19944;-79
2022/10/11 02:30:02;;;;;;;;;;;;;;;;;;5099423;28;20393;-79
2022/10/11 02:32:28;;;;;;;;;;;;;;;;;;5093022;28;19966;-78
2022/10/11 02:34:54;;;;;;;;;;;;;;;;;;5094935;28;20034;-80
2022/10/11 02:37:21;;;;;;;;;;;;;;;;;;5086173;28;19955;-78
2022/10/11 02:39:47;;;;;;;;;;;;;;;;;;5095255;28;19966;-79
2022/10/11 02:42:13;;;;;;;;;;;;;;;;;;5101463;28;19962;-78
2022/10/11 02:44:39;;;;;;;;;;;;;;;;;;5091420;28;20398;-78
2022/10/11 02:47:06;;;;;;;;;;;;;;;;;;5094914;28;19963;-78
2022/10/11 02:49:32;;;;;;;;;;;;;;;;;;5094578;28;19951;-79
2022/10/11 02:51:58;;;;;;;;;;;;;;;;;;5092372;28;19967;-78
2022/10/11 02:54:24;;;;;;;;;;;;;;;;;;5100995;28;19955;-81
2022/10/11 02:56:50;;;;;;;;;;;;;;;;;;5098693;28;19967;-79
2022/10/11 02:59:16;;;;;;;;;;;;;;;;;;5089847;28;20370;-79
2022/10/11 03:01:43;;;;;;;;;;;;;;;;;;5096979;28;19955;-80
2022/10/11 03:04:09;;;;;;;;;;;;;;;;;;5091466;28;19948;-80
2022/10/11 03:06:35;;;;;;;;;;;;;;;;;;5091117;28;19924;-80
2022/10/11 03:09:01;;;;;;;;;;;;;;;;;;5095783;28;19963;-80
2022/10/11 03:11:27;;;;;;;;;;;;;;;;;;5097539;28;19935;-79
2022/10/11 03:13:53;;;;;;;;;;;;;;;;;;5085450;28;19943;-80
2022/10/11 03:16:20;;;;;;;;;;;;;;;;;;5097659;28;22386;-79
2022/10/11 03:18:46;;;;;;;;;;;;;;;;;;5095291;28;19951;-79
2022/10/11 03:21:12;;;;;;;;;;;;;;;;;;5085591;28;19967;-80
2022/10/11 03:23:38;;;;;;;;;;;;;;;;;;5091432;28;19955;-80
2022/10/11 03:26:05;;;;;;;;;;;;;;;;;;5092830;28;19963;-81
2022/10/11 03:28:31;;;;;;;;;;;;;;;;;;5098627;28;19960;-82
2022/10/11 03:30:57;;;;;;;;;;;;;;;;;;5081695;28;19960;-82
2022/10/11 03:33:23;;;;;;;;;;;;;;;;;;5100390;28;19951;-81
2022/10/11 03:35:49;;;;;;;;;;;;;;;;;;5100931;28;19951;-82
2022/10/11 03:38:16;;;;;;;;;;;;;;;;;;5093035;28;20069;-81
2022/10/11 03:40:42;;;;;;;;;;;;;;;;;;5096052;28;19963;-81
2022/10/11 03:43:08;;;;;;;;;;;;;;;;;;5100038;28;19966;-82
2022/10/11 03:45:34;;;;;;;;;;;;;;;;;;5098100;28;19955;-82
2022/10/11 03:48:00;;;;;;;;;;;;;;;;;;5091463;28;19951;-82
2022/10/11 03:50:27;;;;;;;;;;;;;;;;;;5100794;28;19966;-82
2022/10/11 03:52:53;;;;;;;;;;;;;;;;;;5093073;28;19975;-81
2022/10/11 03:55:19;;;;;;;;;;;;;;;;;;5098103;28;19947;-80
2022/10/11 03:57:45;;;;;;;;;;;;;;;;;;5089908;28;19963;-80
2022/10/11 04:00:12;;;;;;;;;;;;;;;;;;5104032;28;20005;-80
2022/10/11 04:02:38;;;;;;;;;;;;;;;;;;5104748;28;20004;-80
2022/10/11 04:05:05;;;;;;;;;;;;;;;;;;5102771;28;20481;-80
2022/10/11 04:07:31;;;;;;;;;;;;;;;;;;5098204;28;19970;-80
2022/10/11 04:09:57;;;;;;;;;;;;;;;;;;5097849;28;20343;-79
2022/10/11 04:12:24;;;;;;;;;;;;;;;;;;5103988;28;19944;-79
2022/10/11 04:14:50;;;;;;;;;;;;;;;;;;5104392;28;19955;-79
2022/10/11 04:17:16;;;;;;;;;;;;;;;;;;5093622;28;19970;-79
2022/10/11 04:19:42;;;;;;;;;;;;;;;;;;5097004;28;19959;-78
2022/10/11 04:22:08;;;;;;;;;;;;;;;;;;5100378;28;20383;-80
2022/10/11 04:24:34;;;;;;;;;;;;;;;;;;5106723;28;19951;-80
2022/10/11 04:27:01;;;;;;;;;;;;;;;;;;5107675;28;19970;-79
2022/10/11 04:29:27;;;;;;;;;;;;;;;;;;5098867;28;19961;-79
2022/10/11 04:31:53;;;;;;;;;;;;;;;;;;5106484;28;20343;-78
2022/10/11 04:34:19;;;;;;;;;;;;;;;;;;5100684;28;19955;-78
2022/10/11 04:36:45;;;;;;;;;;;;;;;;;;5104674;28;19943;-79
2022/10/11 04:39:12;;;;;;;;;;;;;;;;;;5095948;28;19959;-79
2022/10/11 04:41:38;;;;;;;;;;;;;;;;;;5101308;28;20446;-79
2022/10/11 04:44:04;;;;;;;;;;;;;;;;;;5095043;28;20215;-79
2022/10/11 04:46:30;;;;;;;;;;;;;;;;;;5108501;28;19951;-78
2022/10/11 04:48:56;;;;;;;;;;;;;;;;;;5095923;28;19951;-79
2022/10/11 04:51:23;;;;;;;;;;;;;;;;;;5100077;28;20373;-79
2022/10/11 04:53:49;;;;;;;;;;;;;;;;;;5098003;28;19951;-78
2022/10/11 04:56:17;;;;;;;;;;;;;;;;;;5087772;28;20528;-80
2022/10/11 04:58:43;;;;;;;;;;;;;;;;;;5098867;28;19966;-80
2022/10/11 05:01:09;;;;;;;;;;;;;;;;;;5104023;28;20045;-81
2022/10/11 05:03:35;;;;;;;;;;;;;;;;;;5098319;28;19970;-80
2022/10/11 05:06:02;;;;;;;;;;;;;;;;;;5101055;28;19975;-81
2022/10/11 05:08:28;;;;;;;;;;;;;;;;;;5104859;28;19947;-80
2022/10/11 05:10:54;;;;;;;;;;;;;;;;;;5107517;28;19947;-79
2022/10/11 05:13:20;;;;;;;;;;;;;;;;;;5098462;28;20317;-79
2022/10/11 05:15:47;;;;;;;;;;;;;;;;;;5100736;28;19962;-80
2022/10/11 05:18:13;;;;;;;;;;;;;;;;;;5088183;28;19959;-80
2022/10/11 05:20:39;;;;;;;;;;;;;;;;;;5070279;28;19932;-78
2022/10/11 05:23:07;;;;;;;;;;;;;;;;;;5103703;28;20010;-80
2022/10/11 05:25:33;;;;;;;;;;;;;;;;;;5082222;28;19974;-80
2022/10/11 05:27:59;;;;;;;;;;;;;;;;;;5056627;28;19947;-80
2022/10/11 05:30:25;;;;;;;;;;;;;;;;;;5095305;28;20076;-79
2022/10/11 05:32:51;;;;;;;;;;;;;;;;;;5103481;28;20595;-79
2022/10/11 05:35:18;;;;;;;;;;;;;;;;;;5085850;28;19967;-79
2022/10/11 05:37:44;;;;;;;;;;;;;;;;;;5095839;28;19951;-80
2022/10/11 05:40:10;;;;;;;;;;;;;;;;;;5079813;28;20022;-79
2022/10/11 05:42:36;;;;;;;;;;;;;;;;;;5108498;28;19963;-79
2022/10/11 05:45:02;;;;;;;;;;;;;;;;;;5102388;28;19994;-80
2022/10/11 05:47:29;;;;;;;;;;;;;;;;;;5098954;28;19966;-78
2022/10/11 05:49:55;;;;;;;;;;;;;;;;;;5101366;28;19963;-76
2022/10/11 05:52:21;;;;;;;;;;;;;;;;;;5098407;28;20272;-76
2022/10/11 05:54:47;;;;;;;;;;;;;;;;;;5095779;28;20060;-76
2022/10/11 05:57:13;;;;;;;;;;;;;;;;;;5105407;28;19966;-78
2022/10/11 05:59:39;;;;;;;;;;;;;;;;;;5100718;28;19955;-78
2022/10/11 06:02:06;;;;;;;;;;;;;;;;;;5097097;28;20372;-77
2022/10/11 06:04:32;;;;;;;;;;;;;;;;;;5086320;28;19967;-77
2022/10/11 06:06:58;;;;;;;;;;;;;;;;;;5098868;28;19975;-77
2022/10/11 06:09:24;;;;;;;;;;;;;;;;;;5094400;28;19962;-77
2022/10/11 06:11:50;;;;;;;;;;;;;;;;;;5100921;28;19952;-77
2022/10/11 06:14:17;;;;;;;;;;;;;;;;;;5096822;28;20354;-77
2022/10/11 06:16:43;;;;;;;;;;;;;;;;;;5080662;28;19981;-78
2022/10/11 06:19:09;;;;;;;;;;;;;;;;;;5102418;28;19988;-78
2022/10/11 06:21:35;;;;;;;;;;;;;;;;;;5106065;28;20410;-77
2022/10/11 06:24:02;;;;;;;;;;;;;;;;;;5104020;28;19955;-77
2022/10/11 06:26:28;;;;;;;;;;;;;;;;;;5086959;28;19997;-77
2022/10/11 06:28:54;;;;;;;;;;;;;;;;;;5095888;28;19959;-76
2022/10/11 06:31:20;;;;;;;;;;;;;;;;;;5086272;28;19951;-77
2022/10/11 06:33:46;;;;;;;;;;;;;;;;;;5095671;28;19970;-78
2022/10/11 06:36:13;;;;;;;;;;;;;;;;;;5097719;28;19963;-77
2022/10/11 06:38:39;;;;;;;;;;;;;;;;;;5095733;28;19963;-76
2022/10/11 06:41:05;;;;;;;;;;;;;;;;;;5091518;28;19997;-76
2022/10/11 06:43:31;;;;;;;;;;;;;;;;;;5080894;28;19952;-78
2022/10/11 06:45:57;;;;;;;;;;;;;;;;;;5097381;28;19948;-77
2022/10/11 06:48:23;;;;;;;;;;;;;;;;;;5099470;28;19951;-77
2022/10/11 06:50:50;;;;;;;;;;;;;;;;;;5095027;28;19971;-77
2022/10/11 06:53:16;;;;;;;;;;;;;;;;;;5099551;28;19959;-75
2022/10/11 06:55:42;;;;;;;;;;;;;;;;;;5095671;28;19963;-75
2022/10/11 06:58:08;;;;;;;;;;;;;;;;;;5096227;28;20382;-77
2022/10/11 07:00:34;;;;;;;;;;;;;;;;;;5083299;28;19958;-77
2022/10/11 07:03:01;;;;;;;;;;;;;;;;;;5091216;28;19975;-82
2022/10/11 07:05:28;;;;;;;;;;;;;;;;;;5062118;28;19966;-81
2022/10/11 07:07:54;;;;;;;;;;;;;;;;;;5093454;28;19943;-78
2022/10/11 07:10:20;;;;;;;;;;;;;;;;;;5102572;28;20080;-78
2022/10/11 07:12:46;;;;;;;;;;;;;;;;;;5098416;28;19951;-78
2022/10/11 07:15:13;;;;;;;;;;;;;;;;;;5098877;28;19977;-77
2022/10/11 07:17:39;;;;;;;;;;;;;;;;;;5097316;28;19952;-77
2022/10/11 07:20:05;;;;;;;;;;;;;;;;;;5097521;28;20399;-79
2022/10/11 07:22:31;;;;;;;;;;;;;;;;;;5094389;28;19971;-79
2022/10/11 07:24:57;;;;;;;;;;;;;;;;;;5073564;28;19998;-79
2022/10/11 07:27:26;;;;;;;;;;;;;;;;;;5083723;28;19951;-83
2022/10/11 07:29:52;;;;;;;;;;;;;;;;;;5082020;28;19923;-81
2022/10/11 07:32:19;;;;;;;;;;;;;;;;;;5097199;28;20331;-81
2022/10/11 07:34:45;;;;;;;;;;;;;;;;;;5095285;28;19948;-79
2022/10/11 07:37:11;;;;;;;;;;;;;;;;;;5103659;28;19958;-79
2022/10/11 07:39:37;;;;;;;;;;;;;;;;;;5097915;28;20338;-79
2022/10/11 07:42:03;;;;;;;;;;;;;;;;;;5101822;28;20379;-79
2022/10/11 07:44:30;;;;;;;;;;;;;;;;;;5090465;28;20000;-79
2022/10/11 07:46:56;;;;;;;;;;;;;;;;;;5102692;28;19951;-80
2022/10/11 07:49:22;;;;;;;;;;;;;;;;;;5103582;28;19955;-79
2022/10/11 07:51:49;;;;;;;;;;;;;;;;;;5095272;28;19916;-79
2022/10/11 07:54:15;;;;;;;;;;;;;;;;;;5097517;28;19958;-79
2022/10/11 07:56:41;;;;;;;;;;;;;;;;;;5099556;28;19916;-79
2022/10/11 07:59:07;;;;;;;;;;;;;;;;;;5087882;28;20342;-79
2022/10/11 08:01:33;;;;;;;;;;;;;;;;;;5092680;28;20439;-80
2022/10/11 08:04:00;;;;;;;;;;;;;;;;;;5091874;28;19958;-79
2022/10/11 08:06:28;;;;;;;;;;;;;;;;;;5087272;28;19920;-79
2022/10/11 08:08:54;;;;;;;;;;;;;;;;;;5096332;28;19956;-79
2022/10/11 08:11:20;;;;;;;;;;;;;;;;;;5089631;28;19920;-79
2022/10/11 08:13:46;;;;;;;;;;;;;;;;;;5097355;28;19951;-77
2022/10/11 08:16:13;;;;;;;;;;;;;;;;;;5094548;28;19963;-79
2022/10/11 08:18:39;;;;;;;;;;;;;;;;;;5099904;28;19956;-79
2022/10/11 08:21:05;;;;;;;;;;;;;;;;;;5091391;28;19959;-79
2022/10/11 08:23:31;;;;;;;;;;;;;;;;;;5095934;28;20027;-78
2022/10/11 08:25:57;;;;;;;;;;;;;;;;;;5086279;28;19954;-80
2022/10/11 08:28:24;;;;;;;;;;;;;;;;;;5087168;28;19943;-78
2022/10/11 08:30:50;;;;;;;;;;;;;;;;;;5092905;28;20935;-78
2022/10/11 08:33:16;;;;;;;;;;;;;;;;;;5097674;28;20031;-80
2022/10/11 08:35:42;;;;;;;;;;;;;;;;;;5100161;28;19960;-79
2022/10/11 08:38:08;;;;;;;;;;;;;;;;;;5102229;28;19955;-80
2022/10/11 08:40:35;;;;;;;;;;;;;;;;;;5100831;28;20359;-78
2022/10/11 08:43:01;;;;;;;;;;;;;;;;;;5095558;28;20019;-77
2022/10/11 08:45:27;;;;;;;;;;;;;;;;;;5094136;28;19923;-76
2022/10/11 08:47:53;;;;;;;;;;;;;;;;;;5087328;28;19956;-77
2022/10/11 08:50:19;;;;;;;;;;;;;;;;;;5097260;28;19916;-77
2022/10/11 08:52:46;;;;;;;;;;;;;;;;;;5100725;28;19955;-77
2022/10/11 08:55:12;;;;;;;;;;;;;;;;;;5087083;28;19952;-76
2022/10/11 08:57:38;;;;;;;;;;;;;;;;;;5099811;28;19962;-76
2022/10/11 09:00:04;;;;;;;;;;;;;;;;;;5079820;28;20410;-77
2022/10/11 09:02:30;;;;;;;;;;;;;;;;;;5093442;28;19963;-76
2022/10/11 09:04:56;;;;;;;;;;;;;;;;;;5097008;28;19939;-77
2022/10/11 09:07:23;;;;;;;;;;;;;;;;;;5098483;28;19959;-76
2022/10/11 09:09:49;;;;;;;;;;;;;;;;;;5083775;28;20610;-75
2022/10/11 09:12:15;;;;;;;;;;;;;;;;;;5097545;28;19963;-75
2022/10/11 09:14:41;;;;;;;;;;;;;;;;;;5096586;28;19959;-75
2022/10/11 09:17:08;;;;;;;;;;;;;;;;;;5088091;28;19954;-76
2022/10/11 09:19:34;;;;;;;;;;;;;;;;;;5091489;28;19954;-76
2022/10/11 09:22:00;;;;;;;;;;;;;;;;;;5094542;28;20015;-77
2022/10/11 09:24:26;;;;;;;;;;;;;;;;;;5095338;28;19966;-77
2022/10/11 09:26:52;;;;;;;;;;;;;;;;;;5083741;28;19935;-76
2022/10/11 09:29:18;;;;;;;;;;;;;;;;;;5101047;28;20372;-75
2022/10/11 09:31:45;;;;;;;;;;;;;;;;;;5098949;28;19963;-77
2022/10/11 09:34:11;;;;;;;;;;;;;;;;;;5092979;28;19984;-76
2022/10/11 09:36:37;;;;;;;;;;;;;;;;;;5092663;28;19970;-77
2022/10/11 09:39:03;;;;;;;;;;;;;;;;;;5096433;28;19963;-77
2022/10/11 09:41:29;;;;;;;;;;;;;;;;;;5096180;28;19971;-78
2022/10/11 09:43:56;;;;;;;;;;;;;;;;;;5078772;28;20019;-77
2022/10/11 09:46:22;;;;;;;;;;;;;;;;;;5081676;28;22289;-75
2022/10/11 09:48:48;;;;;;;;;;;;;;;;;;5104095;28;19955;-76
2022/10/11 09:51:14;;;;;;;;;;;;;;;;;;5103969;28;20328;-77
2022/10/11 09:53:40;;;;;;;;;;;;;;;;;;5092184;28;20339;-80
2022/10/11 09:56:06;;;;;;;;;;;;;;;;;;5083660;28;19966;-77
2022/10/11 09:58:33;;;;;;;;;;;;;;;;;;5097102;28;19977;-75
2022/10/11 10:00:59;;;;;;;;;;;;;;;;;;5092427;28;19959;-76
2022/10/11 10:03:25;;;;;;;;;;;;;;;;;;5090957;28;19986;-76
2022/10/11 10:05:54;;;;;;;;;;;;;;;;;;5082870;28;19965;-77
2022/10/11 10:08:21;;;;;;;;;;;;;;;;;;5105810;27;20365;-77
2022/10/11 10:10:50;;;;;;;;;;;;;;;;;;5081574;28;20360;-77
2022/10/11 10:13:17;;;;;;;;;;;;;;;;;;5091353;28;19955;-76
2022/10/11 10:15:45;;;;;;;;;;;;;;;;;;5087238;28;19920;-76
2022/10/11 10:18:13;;;;;;;;;;;;;;;;;;5087865;28;19959;-76
2022/10/11 10:20:39;;;;;;;;;;;;;;;;;;5095833;28;19956;-76
2022/10/11 10:23:05;;;;;;;;;;;;;;;;;;5090564;28;19963;-77
2022/10/11 10:25:31;;;;;;;;;;;;;;;;;;5096525;28;19944;-75
2022/10/11 10:27:58;;;;;;;;;;;;;;;;;;5097013;28;19959;-77
2022/10/11 10:30:24;;;;;;;;;;;;;;;;;;5098326;28;19982;-76
2022/10/11 10:32:50;;;;;;;;;;;;;;;;;;5096424;28;19947;-76
2022/10/11 10:35:16;;;;;;;;;;;;;;;;;;5100703;28;24967;-76
2022/10/11 10:37:42;;;;;;;;;;;;;;;;;;5098520;28;20402;-76
2022/10/11 10:40:09;;;;;;;;;;;;;;;;;;5098327;28;19966;-75
2022/10/11 10:42:35;;;;;;;;;;;;;;;;;;5088249;28;20034;-74
2022/10/11 10:45:01;;;;;;;;;;;;;;;;;;5093587;28;20007;-74
2022/10/11 10:47:27;;;;;;;;;;;;;;;;;;5096133;28;19970;-74
2022/10/11 10:49:53;;;;;;;;;;;;;;;;;;5092365;28;19951;-76
2022/10/11 10:52:19;;;;;;;;;;;;;;;;;;5097128;28;19962;-75
2022/10/11 10:54:46;;;;;;;;;;;;;;;;;;5095198;28;19974;-75
2022/10/11 10:57:12;;;;;;;;;;;;;;;;;;5090088;28;19935;-75
2022/10/11 10:59:38;;;;;;;;;;;;;;;;;;5099751;28;19955;-76
2022/10/11 11:02:04;;;;;;;;;;;;;;;;;;5070250;28;19967;-77
2022/10/11 11:04:30;;;;;;;;;;;;;;;;;;5074680;28;20333;-76
2022/10/11 11:06:57;;;;;;;;;;;;;;;;;;5102658;27;20344;-78
2022/10/11 11:09:23;;;;;;;;;;;;;;;;;;5099115;28;19963;-78
2022/10/11 11:11:49;;;;;;;;;;;;;;;;;;5095081;28;19966;-77
2022/10/11 11:14:15;;;;;;;;;;;;;;;;;;5074029;28;19959;-77
2022/10/11 11:16:42;;;;;;;;;;;;;;;;;;5093495;28;19956;-77
2022/10/11 11:19:09;;;;;;;;;;;;;;;;;;5093986;28;19965;-76
2022/10/11 11:21:35;;;;;;;;;;;;;;;;;;5062555;28;20463;-76
2022/10/11 11:24:01;;;;;;;;;;;;;;;;;;5078350;28;19951;-77
2022/10/11 11:26:27;;;;;;;;;;;;;;;;;;5092401;28;20479;-77
2022/10/11 11:28:53;;;;;;;;;;;;;;;;;;5097655;28;19958;-77
2022/10/11 11:31:20;;;;;;;;;;;;;;;;;;5086910;28;19951;-76
2022/10/11 11:33:46;;;;;;;;;;;;;;;;;;5085286;28;19939;-76
2022/10/11 11:36:12;;;;;;;;;;;;;;;;;;5086354;28;20046;-75
2022/10/11 11:38:39;;;;;;;;;;;;;;;;;;5094327;28;20398;-76
2022/10/11 11:41:05;;;;;;;;;;;;;;;;;;5096775;28;19975;-77
2022/10/11 11:43:31;;;;;;;;;;;;;;;;;;5094346;28;20019;-76
2022/10/11 11:45:57;;;;;;;;;;;;;;;;;;5088190;28;19960;-77
2022/10/11 11:48:24;;;;;;;;;;;;;;;;;;5092515;28;19965;-77
2022/10/11 11:50:50;;;;;;;;;;;;;;;;;;5089756;28;19947;-77
2022/10/11 11:53:17;;;;;;;;;;;;;;;;;;5092758;28;20867;-75
2022/10/11 11:55:43;;;;;;;;;;;;;;;;;;5096846;28;19970;-76
2022/10/11 11:58:09;;;;;;;;;;;;;;;;;;5091598;28;20052;-74
2022/10/11 12:00:35;;;;;;;;;;;;;;;;;;5099118;28;19970;-75
2022/10/11 12:03:01;;;;;;;;;;;;;;;;;;5079567;28;19963;-76
2022/10/11 12:05:28;;;;;;;;;;;;;;;;;;5082399;28;19963;-75
2022/10/11 12:07:54;;;;;;;;;;;;;;;;;;5093636;28;19970;-76
2022/10/11 12:10:20;;;;;;;;;;;;;;;;;;5080605;28;19912;-76
2022/10/11 12:12:46;;;;;;;;;;;;;;;;;;5085960;28;19960;-78
2022/10/11 12:15:13;;;;;;;;;;;;;;;;;;5069689;28;20334;-78
2022/10/11 12:17:39;;;;;;;;;;;;;;;;;;5088173;28;19927;-77
2022/10/11 12:20:05;;;;;;;;;;;;;;;;;;5092266;28;20028;-77
2022/10/11 12:22:31;;;;;;;;;;;;;;;;;;5097116;28;20371;-76
2022/10/11 12:24:58;;;;;;;;;;;;;;;;;;5099889;28;19960;-79
2022/10/11 12:27:24;;;;;;;;;;;;;;;;;;5108544;28;19961;-76
2022/10/11 12:29:50;;;;;;;;;;;;;;;;;;5100745;28;19944;-77
2022/10/11 12:32:16;;;;;;;;;;;;;;;;;;5104682;28;19962;-79
2022/10/11 12:34:42;;;;;;;;;;;;;;;;;;5105406;28;19955;-77
2022/10/11 12:37:09;;;;;;;;;;;;;;;;;;5102229;28;19965;-77
2022/10/11 12:39:35;;;;;;;;;;;;;;;;;;5097840;28;19950;-78
2022/10/11 12:42:01;;;;;;;;;;;;;;;;;;5092793;28;19958;-77
2022/10/11 12:44:27;;;;;;;;;;;;;;;;;;5075841;28;19959;-78
2022/10/11 12:46:53;;;;;;;;;;;;;;;;;;5095757;28;19959;-77
2022/10/11 12:49:20;;;;;;;;;;;;;;;;;;5097052;28;19947;-78
2022/10/11 12:51:46;;;;;;;;;;;;;;;;;;5096926;28;19950;-78
2022/10/11 12:54:12;;;;;;;;;;;;;;;;;;5100471;28;19970;-74
2022/10/11 12:56:38;;;;;;;;;;;;;;;;;;5095184;28;19967;-75
2022/10/11 12:59:05;;;;;;;;;;;;;;;;;;5095895;28;20403;-75
2022/10/11 13:01:31;;;;;;;;;;;;;;;;;;5107358;28;20357;-73
2022/10/11 13:03:57;;;;;;;;;;;;;;;;;;5093232;28;19967;-76
2022/10/11 13:06:23;;;;;;;;;;;;;;;;;;5103050;28;19924;-73
2022/10/11 13:08:50;;;;;;;;;;;;;;;;;;5098241;28;19970;-74
2022/10/11 13:11:16;;;;;;;;;;;;;;;;;;5095086;28;19963;-74
2022/10/11 13:13:42;;;;;;;;;;;;;;;;;;5090473;28;20014;-75
2022/10/11 13:16:08;;;;;;;;;;;;;;;;;;5104685;28;19978;-74
2022/10/11 13:18:35;;;;;;;;;;;;;;;;;;5099857;28;19950;-74
2022/10/11 13:21:01;;;;;;;;;;;;;;;;;;5100429;28;19963;-74
2022/10/11 13:23:27;;;;;;;;;;;;;;;;;;5104720;28;19955;-74
2022/10/11 13:25:53;;;;;;;;;;;;;;;;;;5095813;28;19989;-76
2022/10/11 13:28:20;;;;;;;;;;;;;;;;;;5091420;28;19951;-74
2022/10/11 13:30:46;;;;;;;;;;;;;;;;;;5097040;28;20474;-77
2022/10/11 13:33:12;;;;;;;;;;;;;;;;;;5094942;28;19951;-75
2022/10/11 13:35:38;;;;;;;;;;;;;;;;;;5093843;28;19951;-75
2022/10/11 13:38:04;;;;;;;;;;;;;;;;;;5076847;28;19964;-75
2022/10/11 13:40:31;;;;;;;;;;;;;;;;;;5096581;28;19954;-75
2022/10/11 13:42:57;;;;;;;;;;;;;;;;;;5095890;28;19970;-77
2022/10/11 13:45:23;;;;;;;;;;;;;;;;;;5095459;28;19963;-75
2022/10/11 13:47:49;;;;;;;;;;;;;;;;;;5090779;28;19955;-75
2022/10/11 13:50:15;;;;;;;;;;;;;;;;;;5089090;28;20709;-75
2022/10/11 13:52:42;;;;;;;;;;;;;;;;;;5094394;28;20660;-75
2022/10/11 13:55:10;;;;;;;;;;;;;;;;;;5090738;28;19958;-75
2022/10/11 13:57:36;;;;;;;;;;;;;;;;;;5094184;28;20028;-75
2022/10/11 14:00:03;;;;;;;;;;;;;;;;;;5091902;28;19961;-75
2022/10/11 14:02:29;;;;;;;;;;;;;;;;;;5097687;28;19947;-74
2022/10/11 14:04:55;;;;;;;;;;;;;;;;;;5098417;28;20003;-74
2022/10/11 14:07:21;;;;;;;;;;;;;;;;;;5097728;28;19955;-74
2022/10/11 14:09:47;;;;;;;;;;;;;;;;;;5101127;28;19979;-74
2022/10/11 14:12:14;;;;;;;;;;;;;;;;;;5099163;28;19963;-74
2022/10/11 14:14:40;;;;;;;;;;;;;;;;;;5098923;28;19958;-73
2022/10/11 14:17:06;;;;;;;;;;;;;;;;;;5098461;28;19955;-74
2022/10/11 14:19:32;;;;;;;;;;;;;;;;;;5090387;28;20053;-73
2022/10/11 14:21:58;;;;;;;;;;;;;;;;;;5099515;28;19963;-74
2022/10/11 14:24:25;;;;;;;;;;;;;;;;;;5097823;28;20399;-74
2022/10/11 14:26:51;;;;;;;;;;;;;;;;;;5099869;28;19966;-74
2022/10/11 14:29:17;;;;;;;;;;;;;;;;;;5082336;28;20464;-74
2022/10/11 14:31:43;;;;;;;;;;;;;;;;;;5098167;28;19998;-74
2022/10/11 14:34:09;;;;;;;;;;;;;;;;;;5098468;28;19955;-74
2022/10/11 14:36:36;;;;;;;;;;;;;;;;;;5095900;28;19966;-74
2022/10/11 14:39:02;;;;;;;;;;;;;;;;;;5099478;28;20572;-74
2022/10/11 14:41:28;;;;;;;;;;;;;;;;;;5099025;28;19959;-74
2022/10/11 14:43:55;;;;;;;;;;;;;;;;;;5099488;28;19959;-74
2022/10/11 14:46:21;;;;;;;;;;;;;;;;;;5099825;28;19958;-74
2022/10/11 14:48:48;;;;;;;;;;;;;;;;;;5097709;28;19951;-74
2022/10/11 14:51:14;;;;;;;;;;;;;;;;;;5098969;28;20418;-74
2022/10/11 14:53:45;;;;;;;;;;;;;;;;;;5097540;28;19954;-74
2022/10/11 14:56:11;;;;;;;;;;;;;;;;;;5078436;28;19955;-74
2022/10/11 14:58:37;;;;;;;;;;;;;;;;;;5093183;28;19959;-74
2022/10/11 15:01:22;;;;;;;;;;;;;;;;;;5092178;28;20456;-74
2022/10/11 15:03:48;;;;;;;;;;;;;;;;;;5094514;28;20157;-74
2022/10/11 15:06:14;;;;;;;;;;;;;;;;;;5095255;28;19955;-73
2022/10/11 15:08:41;;;;;;;;;;;;;;;;;;5095782;28;19979;-73
2022/10/11 15:11:07;;;;;;;;;;;;;;;;;;5092828;28;19955;-74
2022/10/11 15:13:33;;;;;;;;;;;;;;;;;;5095505;28;19951;-73
2022/10/11 15:15:59;;;;;;;;;;;;;;;;;;5094326;27;19962;-74
2022/10/11 15:18:25;;;;;;;;;;;;;;;;;;5092585;28;19948;-73
2022/10/11 15:20:53;;;;;;;;;;;;;;;;;;5099029;27;19963;-73
2022/10/11 15:23:20;;;;;;;;;;;;;;;;;;5092146;28;20046;-74
2022/10/11 15:25:46;;;;;;;;;;;;;;;;;;5095055;28;21656;-74
2022/10/11 15:28:12;;;;;;;;;;;;;;;;;;5097971;28;19951;-74
2022/10/11 15:30:40;;;;;;;;;;;;;;;;;;5097094;28;20367;-74
2022/10/11 15:33:06;;;;;;;;;;;;;;;;;;5099978;28;19919;-73
2022/10/11 15:35:32;;;;;;;;;;;;;;;;;;5097589;28;19951;-74
2022/10/11 15:37:59;;;;;;;;;;;;;;;;;;5096961;28;19962;-73
2022/10/11 15:40:25;;;;;;;;;;;;;;;;;;5080284;28;19970;-74
2022/10/11 15:42:51;;;;;;;;;;;;;;;;;;5096314;28;20023;-74
2022/10/11 15:45:17;;;;;;;;;;;;;;;;;;5095041;28;20244;-75
2022/10/11 15:47:43;;;;;;;;;;;;;;;;;;5097779;28;19953;-74
2022/10/11 15:50:09;;;;;;;;;;;;;;;;;;5103779;28;19944;-78
2022/10/11 15:52:36;;;;;;;;;;;;;;;;;;5101193;28;19920;-75
2022/10/11 15:55:05;;;;;;;;;;;;;;;;;;5102429;28;19942;-74
2022/10/11 15:57:31;;;;;;;;;;;;;;;;;;5097104;28;19949;-74
2022/10/11 15:59:57;;;;;;;;;;;;;;;;;;5096246;28;20449;-74
2022/10/11 16:02:24;;;;;;;;;;;;;;;;;;5100491;28;19968;-75
2022/10/11 16:04:50;;;;;;;;;;;;;;;;;;5100711;28;19960;-76
2022/10/11 16:07:16;;;;;;;;;;;;;;;;;;5088210;28;19951;-75
2022/10/11 16:09:42;;;;;;;;;;;;;;;;;;5090876;28;19978;-78
2022/10/11 16:12:09;;;;;;;;;;;;;;;;;;5102532;27;19955;-76
2022/10/11 16:14:35;;;;;;;;;;;;;;;;;;5097297;28;19982;-75
2022/10/11 16:17:02;;;;;;;;;;;;;;;;;;5097622;28;19947;-79
2022/10/11 16:19:29;;;;;;;;;;;;;;;;;;5081446;28;20450;-76
2022/10/11 16:21:55;;;;;;;;;;;;;;;;;;5101795;28;20006;-76
2022/10/11 16:24:21;;;;;;;;;;;;;;;;;;5086124;28;19932;-75
2022/10/11 16:26:47;;;;;;;;;;;;;;;;;;5096609;28;19966;-77
2022/10/11 16:29:14;;;;;;;;;;;;;;;;;;5099032;28;19967;-77
2022/10/11 16:31:40;;;;;;;;;;;;;;;;;;5099678;28;21110;-76
2022/10/11 16:34:06;;;;;;;;;;;;;;;;;;5102949;28;20073;-76
2022/10/11 16:36:36;;;;;;;;;;;;;;;;;;5093197;28;19955;-76
2022/10/11 16:39:03;;;;;;;;;;;;;;;;;;5098545;28;19963;-76